createdAt,value
2019-03-01T00:02:27.935Z,68.53
2019-03-01T00:05:37.411Z,60.33
2019-03-01T00:08:17.621Z,58.50
2019-03-01T00:11:33.497Z,57.17
2019-03-01T00:14:54.560Z,63.27
2019-03-01T00:18:05.568Z,62.73
2019-03-01T00:21:40.907Z,65.67
2019-03-01T00:25:14.235Z,60.10
2019-03-01T00:28:26.913Z,68.30
2019-03-01T00:31:22.758Z,53.67
2019-03-01T00:34:56.253Z,58.63
2019-03-01T00:38:05.957Z,50.53
2019-03-01T00:41:08.914Z,50.67
2019-03-01T00:44:00.655Z,54.23
2019-03-01T00:46:30.836Z,59.40
2019-03-01T00:49:00.802Z,50.57
2019-03-01T00:51:30.747Z,59.10
2019-03-01T00:54:00.658Z,58.27
2019-03-01T00:56:30.553Z,61.17
2019-03-01T00:59:00.455Z,71.50
2019-03-01T01:01:30.426Z,65.50
2019-03-01T01:04:00.379Z,71.17
2019-03-01T01:06:30.364Z,68.83
2019-03-01T01:09:00.263Z,72.03
2019-03-01T01:11:30.171Z,69.73
2019-03-01T01:14:00.528Z,73.70
2019-03-01T01:16:30.430Z,64.23
2019-03-01T01:19:00.342Z,64.83
2019-03-01T01:21:30.267Z,59.83
2019-03-01T01:24:00.338Z,58.30
2019-03-01T01:26:30.216Z,57.57
2019-03-01T01:29:00.124Z,55.13
2019-03-01T01:31:30.078Z,61.90
2019-03-01T01:34:01.073Z,57.67
2019-03-01T01:36:31.198Z,56.43
2019-03-01T01:39:01.075Z,62.37
2019-03-01T01:41:31.217Z,88.70
2019-03-01T01:44:01.130Z,63.37
2019-03-01T01:46:31.055Z,85.67
2019-03-01T01:49:00.975Z,79.37
2019-03-01T01:51:30.902Z,63.37
2019-03-01T01:54:00.890Z,57.63
2019-03-01T01:56:30.896Z,59.07
2019-03-01T01:59:00.792Z,56.93
2019-03-01T02:01:30.963Z,68.23
2019-03-01T02:04:00.881Z,61.67
2019-03-01T02:06:31.327Z,60.10
2019-03-01T02:09:01.539Z,59.33
2019-03-01T02:11:31.552Z,64.17
2019-03-01T02:14:02.206Z,57.30
2019-03-01T02:16:32.091Z,60.17
2019-03-01T02:19:02.641Z,54.27
2019-03-01T02:21:32.697Z,59.07
2019-03-01T02:24:02.985Z,59.37
2019-03-01T02:26:33.164Z,62.13
2019-03-01T02:29:03.267Z,59.13
2019-03-01T02:31:33.269Z,61.60
2019-03-01T02:34:03.221Z,56.23
2019-03-01T02:36:33.469Z,55.83
2019-03-01T02:39:04.004Z,54.73
2019-03-01T02:41:33.996Z,59.50
2019-03-01T02:44:04.374Z,56.10
2019-03-01T02:46:34.311Z,59.80
2019-03-01T02:49:04.249Z,59.90
2019-03-01T02:51:34.801Z,60.10
2019-03-01T02:54:04.779Z,62.60
2019-03-01T02:56:34.699Z,59.80
2019-03-01T02:59:04.618Z,60.90
2019-03-01T03:01:34.778Z,60.30
2019-03-01T03:04:05.071Z,58.63
2019-03-01T03:06:45.914Z,57.27
2019-03-01T03:09:16.087Z,64.57
2019-03-01T03:11:46.482Z,60.17
2019-03-01T03:14:16.384Z,59.53
2019-03-01T03:16:46.514Z,59.43
2019-03-01T03:19:16.430Z,59.90
2019-03-01T03:21:46.687Z,58.50
2019-03-01T03:24:16.583Z,62.00
2019-03-01T03:26:48.571Z,59.70
2019-03-01T03:29:18.086Z,60.80
2019-03-01T03:31:48.001Z,55.67
2019-03-01T03:34:17.915Z,60.33
2019-03-01T03:36:48.095Z,61.23
2019-03-01T03:39:18.360Z,56.60
2019-03-01T03:41:48.585Z,58.20
2019-03-01T03:44:18.595Z,59.90
2019-03-01T03:46:48.538Z,57.33
2019-03-01T03:49:18.457Z,54.83
2019-03-01T03:51:48.433Z,57.63
2019-03-01T03:54:18.678Z,62.03
2019-03-01T03:56:48.781Z,58.47
2019-03-01T03:59:19.170Z,61.67
2019-03-01T04:01:49.330Z,62.73
2019-03-01T04:04:19.554Z,56.83
2019-03-01T04:06:49.780Z,63.83
2019-03-01T04:09:19.701Z,64.87
2019-03-01T04:11:49.959Z,70.37
2019-03-01T04:14:20.366Z,63.63
2019-03-01T04:16:50.266Z,68.33
2019-03-01T04:19:20.547Z,64.13
2019-03-01T04:21:50.791Z,65.63
2019-03-01T04:24:21.027Z,65.10
2019-03-01T04:26:50.947Z,62.50
2019-03-01T04:29:20.904Z,66.37
2019-03-01T04:31:50.852Z,74.10
2019-03-01T04:34:20.782Z,60.90
2019-03-01T04:36:51.334Z,59.97
2019-03-01T04:39:21.231Z,70.33
2019-03-01T04:41:51.120Z,60.77
2019-03-01T04:44:21.030Z,62.10
2019-03-01T04:46:51.253Z,65.10
2019-03-01T04:49:21.697Z,71.13
2019-03-01T04:51:51.769Z,63.83
2019-03-01T04:54:21.688Z,65.43
2019-03-01T04:56:52.293Z,64.20
2019-03-01T04:59:22.471Z,62.97
2019-03-01T05:01:52.447Z,58.27
2019-03-01T05:04:22.395Z,56.40
2019-03-01T05:06:52.307Z,64.17
2019-03-01T05:09:22.223Z,64.60
2019-03-01T05:11:52.153Z,67.53
2019-03-01T05:14:22.051Z,66.27
2019-03-01T05:16:52.234Z,61.07
2019-03-01T05:19:22.143Z,68.90
2019-03-01T05:21:52.628Z,70.73
2019-03-01T05:24:22.536Z,66.17
2019-03-01T05:26:52.477Z,71.97
2019-03-01T05:29:22.961Z,73.83
2019-03-01T05:31:53.102Z,81.43
2019-03-01T05:34:23.054Z,76.17
2019-03-01T05:36:53.014Z,74.90
2019-03-01T05:39:22.943Z,81.63
2019-03-01T05:41:53.138Z,74.37
2019-03-01T05:44:23.340Z,82.70
2019-03-01T05:46:53.392Z,75.77
2019-03-01T05:49:23.528Z,79.67
2019-03-01T05:51:53.711Z,86.70
2019-03-01T05:54:23.666Z,85.47
2019-03-01T05:56:53.580Z,83.53
2019-03-01T05:59:29.266Z,83.43
2019-03-01T06:02:52.114Z,91.47
2019-03-01T06:05:31.279Z,81.37
2019-03-01T06:08:36.369Z,93.57
2019-03-01T06:11:39.466Z,103.00
2019-03-01T06:15:16.680Z,88.07
2019-03-01T06:18:21.521Z,89.73
2019-03-01T06:21:28.252Z,94.73
2019-03-01T06:24:29.978Z,102.33
2019-03-01T06:27:55.633Z,91.07
2019-03-01T06:31:29.657Z,85.50
2019-03-01T06:34:35.496Z,97.73
2019-03-01T06:37:47.240Z,93.40
2019-03-01T06:41:23.978Z,97.20
2019-03-01T06:44:23.224Z,91.70
2019-03-01T06:47:43.238Z,86.50
2019-03-01T06:50:35.089Z,95.27
2019-03-01T06:53:05.148Z,105.93
2019-03-01T06:55:47.789Z,94.57
2019-03-01T06:58:27.466Z,99.27
2019-03-01T07:01:02.061Z,101.07
2019-03-01T07:03:32.182Z,99.40
2019-03-01T07:06:03.522Z,112.97
2019-03-01T07:08:34.096Z,103.33
2019-03-01T07:11:04.184Z,103.63
2019-03-01T07:13:34.102Z,114.83
2019-03-01T07:16:04.872Z,111.07
2019-03-01T07:18:34.769Z,107.93
2019-03-01T07:21:04.799Z,111.87
2019-03-01T07:23:37.015Z,115.43
2019-03-01T07:26:06.721Z,105.60
2019-03-01T07:28:36.639Z,103.83
2019-03-01T07:31:07.144Z,114.23
2019-03-01T07:33:37.153Z,119.37
2019-03-01T07:36:07.096Z,109.83
2019-03-01T07:38:37.348Z,114.47
2019-03-01T07:41:07.368Z,128.80
2019-03-01T07:43:37.546Z,125.63
2019-03-01T07:46:08.177Z,137.63
2019-03-01T07:48:38.497Z,124.17
2019-03-01T07:51:08.800Z,141.43
2019-03-01T07:53:41.818Z,124.10
2019-03-01T07:56:10.710Z,127.87
2019-03-01T07:58:40.625Z,129.53
2019-03-01T08:01:10.899Z,124.77
2019-03-01T08:03:40.814Z,139.60
2019-03-01T08:06:13.523Z,125.97
2019-03-01T08:08:42.947Z,140.50
2019-03-01T08:11:13.069Z,116.47
2019-03-01T08:13:43.031Z,133.73
2019-03-01T08:16:13.294Z,144.97
2019-03-01T08:18:44.265Z,127.83
2019-03-01T08:21:15.477Z,138.40
2019-03-01T08:23:45.649Z,123.97
2019-03-01T08:26:15.869Z,123.03
2019-03-01T08:28:46.081Z,116.37
2019-03-01T08:31:17.550Z,140.53
2019-03-01T08:33:47.914Z,127.77
2019-03-01T08:36:17.875Z,142.53
2019-03-01T08:38:47.820Z,151.07
2019-03-01T08:41:18.158Z,169.27
2019-03-01T08:43:49.179Z,144.57
2019-03-01T08:46:19.989Z,164.03
2019-03-01T08:48:50.317Z,164.70
2019-03-01T08:51:22.706Z,152.80
2019-03-01T08:53:54.467Z,141.60
2019-03-01T08:56:26.351Z,157.63
2019-03-01T08:58:56.633Z,151.37
2019-03-01T09:01:27.016Z,148.13
2019-03-01T09:04:01.982Z,170.80
2019-03-01T09:06:32.423Z,142.30
2019-03-01T09:09:02.653Z,145.73
2019-03-01T09:11:32.653Z,134.53
2019-03-01T09:14:02.878Z,139.23
2019-03-01T09:16:33.118Z,137.27
2019-03-01T09:19:03.023Z,143.50
2019-03-01T09:21:33.000Z,148.77
2019-03-01T09:24:02.916Z,153.50
2019-03-01T09:26:32.823Z,140.40
2019-03-01T09:29:02.771Z,149.40
2019-03-01T09:31:32.764Z,147.47
2019-03-01T09:34:02.759Z,149.30
2019-03-01T09:36:39.968Z,146.77
2019-03-01T09:39:14.397Z,131.53
2019-03-01T09:41:43.383Z,138.63
2019-03-01T09:44:13.422Z,127.90
2019-03-01T09:46:43.351Z,127.67
2019-03-01T09:49:13.571Z,130.70
2019-03-01T09:51:47.446Z,137.10
2019-03-01T09:54:15.437Z,118.63
2019-03-01T09:56:45.469Z,125.67
2019-03-01T09:59:15.494Z,113.30
2019-03-01T10:01:45.413Z,121.23
2019-03-01T10:04:15.484Z,116.43
2019-03-01T10:06:45.406Z,113.77
2019-03-01T10:09:15.656Z,134.43
2019-03-01T10:11:45.640Z,141.63
2019-03-01T10:14:15.877Z,141.00
2019-03-01T10:16:46.194Z,126.33
2019-03-01T10:19:16.418Z,143.57
2019-03-01T10:21:46.731Z,140.57
2019-03-01T10:24:16.915Z,150.30
2019-03-01T10:26:46.873Z,139.50
2019-03-01T10:29:16.781Z,141.80
2019-03-01T10:31:47.221Z,144.07
2019-03-01T10:34:17.696Z,143.50
2019-03-01T10:36:47.679Z,129.00
2019-03-01T10:39:18.240Z,136.13
2019-03-01T10:41:48.716Z,150.63
2019-03-01T10:44:18.793Z,116.40
2019-03-01T10:46:48.972Z,142.17
2019-03-01T10:49:18.937Z,142.57
2019-03-01T10:51:49.288Z,142.83
2019-03-01T10:54:19.272Z,149.90
2019-03-01T10:56:49.389Z,161.37
2019-03-01T10:59:19.586Z,142.93
2019-03-01T11:01:49.779Z,150.50
2019-03-01T11:04:19.681Z,157.87
2019-03-01T11:06:49.799Z,179.90
2019-03-01T11:09:19.964Z,180.73
2019-03-01T11:11:50.295Z,171.73
2019-03-01T11:14:20.250Z,156.13
2019-03-01T11:16:50.239Z,155.90
2019-03-01T11:19:20.568Z,153.67
2019-03-01T11:21:50.727Z,144.07
2019-03-01T11:24:20.634Z,129.60
2019-03-01T11:26:50.735Z,135.20
2019-03-01T11:29:20.663Z,120.07
2019-03-01T11:31:51.121Z,135.27
2019-03-01T11:34:21.285Z,122.77
2019-03-01T11:36:52.665Z,135.73
2019-03-01T11:39:23.230Z,131.20
2019-03-01T11:41:53.151Z,125.17
2019-03-01T11:44:23.592Z,124.30
2019-03-01T11:46:53.513Z,108.43
2019-03-01T11:49:23.623Z,122.37
2019-03-01T11:51:53.565Z,133.90
2019-03-01T11:54:23.492Z,135.37
2019-03-01T11:56:53.785Z,135.87
2019-03-01T11:59:23.826Z,124.13
2019-03-01T12:01:54.071Z,118.10
2019-03-01T12:04:24.275Z,110.30
2019-03-01T12:06:54.195Z,106.93
2019-03-01T12:09:24.329Z,94.07
2019-03-01T12:11:54.241Z,77.43
2019-03-01T12:14:24.407Z,91.03
2019-03-01T12:16:54.693Z,91.60
2019-03-01T12:19:24.605Z,75.80
2019-03-01T12:21:54.504Z,84.50
2019-03-01T12:24:24.488Z,77.77
2019-03-01T12:26:54.398Z,85.30
2019-03-01T12:29:24.403Z,81.00
2019-03-01T12:31:54.555Z,83.17
2019-03-01T12:34:24.467Z,76.47
2019-03-01T12:36:54.390Z,78.03
2019-03-01T12:39:24.331Z,83.73
2019-03-01T12:41:54.227Z,74.70
2019-03-01T12:44:24.425Z,80.77
2019-03-01T12:46:54.395Z,85.53
2019-03-01T12:49:24.291Z,73.53
2019-03-01T12:51:54.511Z,77.23
2019-03-01T12:54:24.522Z,70.00
2019-03-01T12:56:54.512Z,51.97
2019-03-01T12:59:25.505Z,51.77
2019-03-01T13:01:55.496Z,63.50
2019-03-01T13:04:27.277Z,61.07
2019-03-01T13:06:57.090Z,50.93
2019-03-01T13:09:27.660Z,52.33
2019-03-01T13:11:57.653Z,55.33
2019-03-01T13:14:27.862Z,51.53
2019-03-01T13:16:58.467Z,47.83
2019-03-01T13:19:29.628Z,47.30
2019-03-01T13:21:59.969Z,30.77
2019-03-01T13:24:29.984Z,33.97
2019-03-01T13:26:59.902Z,27.13
2019-03-01T13:29:30.295Z,34.93
2019-03-01T13:32:00.181Z,27.90
2019-03-01T13:34:30.066Z,31.70
2019-03-01T13:37:00.000Z,33.47
2019-03-01T13:39:30.123Z,29.53
2019-03-01T13:42:00.038Z,25.50
2019-03-01T13:44:30.198Z,28.97
2019-03-01T13:47:00.187Z,28.07
2019-03-01T13:49:30.590Z,27.47
2019-03-01T13:52:01.712Z,25.40
2019-03-01T13:54:31.655Z,26.00
2019-03-01T13:57:01.657Z,29.63
2019-03-01T13:59:31.630Z,23.27
2019-03-01T14:02:04.359Z,20.85
2019-03-01T14:04:36.472Z,22.73
2019-03-01T14:07:05.085Z,22.70
2019-03-01T14:09:34.954Z,19.50
2019-03-01T14:12:05.271Z,19.00
2019-03-01T14:14:35.527Z,19.03
2019-03-01T14:17:05.515Z,19.10
2019-03-01T14:19:39.096Z,15.70
2019-03-01T14:22:10.756Z,20.13
2019-03-01T14:24:39.425Z,15.90
2019-03-01T14:27:09.349Z,17.30
2019-03-01T14:29:39.286Z,14.77
2019-03-01T14:32:09.567Z,19.73
2019-03-01T14:34:39.476Z,20.50
2019-03-01T14:37:09.565Z,14.50
2019-03-01T14:39:41.726Z,17.60
2019-03-01T14:42:11.897Z,15.50
2019-03-01T14:44:41.871Z,18.40
2019-03-01T14:47:13.127Z,15.13
2019-03-01T14:49:43.257Z,16.83
2019-03-01T14:52:13.610Z,17.00
2019-03-01T14:54:45.202Z,18.93
2019-03-01T14:57:46.152Z,17.83
2019-03-01T15:00:23.765Z,16.17
2019-03-01T15:03:35.415Z,14.37
2019-03-01T15:06:07.088Z,11.93
2019-03-01T15:08:40.604Z,11.60
2019-03-01T15:11:14.085Z,13.03
2019-03-01T15:13:44.572Z,14.37
2019-03-01T15:16:14.575Z,12.37
2019-03-01T15:18:44.850Z,15.00
2019-03-01T15:21:15.341Z,15.23
2019-03-01T15:23:46.057Z,12.23
2019-03-01T15:26:15.991Z,11.33
2019-03-01T15:28:55.397Z,11.63
2019-03-01T15:31:24.292Z,12.80
2019-03-01T15:33:54.477Z,10.97
2019-03-01T15:36:24.495Z,12.53
2019-03-01T15:38:54.470Z,17.97
2019-03-01T15:41:24.891Z,12.73
2019-03-01T15:43:54.788Z,12.70
2019-03-01T15:46:25.145Z,14.37
2019-03-01T15:48:55.210Z,10.57
2019-03-01T15:51:25.147Z,12.07
2019-03-01T15:54:00.973Z,9.10
2019-03-01T15:56:30.948Z,10.43
2019-03-01T15:59:01.171Z,11.27
2019-03-01T16:01:31.178Z,12.63
2019-03-01T16:04:01.412Z,9.13
2019-03-01T16:06:31.433Z,11.73
2019-03-01T16:09:01.796Z,12.20
2019-03-01T16:11:31.707Z,12.07
2019-03-01T16:14:01.958Z,12.27
2019-03-01T16:16:32.494Z,14.80
2019-03-01T16:19:02.813Z,14.10
2019-03-01T16:21:33.056Z,14.00
2019-03-01T16:24:04.992Z,10.63
2019-03-01T16:26:36.399Z,11.53
2019-03-01T16:29:07.196Z,15.33
2019-03-01T16:31:38.006Z,13.23
2019-03-01T16:34:07.922Z,12.03
2019-03-01T16:36:41.343Z,14.97
2019-03-01T16:39:16.448Z,15.20
2019-03-01T16:41:46.284Z,15.23
2019-03-01T16:44:16.651Z,10.10
2019-03-01T16:46:46.641Z,14.30
2019-03-01T16:49:16.562Z,11.60
2019-03-01T16:51:50.706Z,16.77
2019-03-01T16:54:20.952Z,11.47
2019-03-01T16:56:50.887Z,12.40
2019-03-01T16:59:20.916Z,11.77
2019-03-01T17:01:51.086Z,13.77
2019-03-01T17:04:21.205Z,12.33
2019-03-01T17:06:52.112Z,12.07
2019-03-01T17:09:22.269Z,12.30
2019-03-01T17:11:52.488Z,10.63
2019-03-01T17:14:22.733Z,12.60
2019-03-01T17:16:52.640Z,13.10
2019-03-01T17:19:23.952Z,13.50
2019-03-01T17:21:54.265Z,14.63
2019-03-01T17:24:24.168Z,13.57
2019-03-01T17:26:54.319Z,10.20
2019-03-01T17:29:24.317Z,9.53
2019-03-01T17:31:54.222Z,11.47
2019-03-01T17:34:25.858Z,17.53
2019-03-01T17:36:55.808Z,15.53
2019-03-01T17:39:25.727Z,14.97
2019-03-01T17:41:55.917Z,12.27
2019-03-01T17:44:25.860Z,12.13
2019-03-01T17:46:56.004Z,13.50
2019-03-01T17:49:25.985Z,10.40
2019-03-01T17:51:56.513Z,15.73
2019-03-01T17:54:27.549Z,13.40
2019-03-01T17:56:57.981Z,11.20
2019-03-01T17:59:28.199Z,10.97
2019-03-01T18:01:58.116Z,18.60
2019-03-01T18:04:28.267Z,11.90
2019-03-01T18:06:58.168Z,13.33
2019-03-01T18:09:28.073Z,10.93
2019-03-01T18:11:58.010Z,13.10
2019-03-01T18:14:27.901Z,10.80
2019-03-01T18:17:00.418Z,9.30
2019-03-01T18:19:29.891Z,13.23
2019-03-01T18:22:00.042Z,9.90
2019-03-01T18:24:30.250Z,11.43
2019-03-01T18:27:00.483Z,13.73
2019-03-01T18:29:30.394Z,10.33
2019-03-01T18:32:00.506Z,11.47
2019-03-01T18:34:35.698Z,11.13
2019-03-01T18:37:03.789Z,9.80
2019-03-01T18:39:34.141Z,9.77
2019-03-01T18:42:04.493Z,9.10
2019-03-01T18:44:34.421Z,9.20
2019-03-01T18:47:04.375Z,11.13
2019-03-01T18:49:34.266Z,12.30
2019-03-01T18:52:04.477Z,9.40
2019-03-01T18:54:35.898Z,12.23
2019-03-01T18:57:06.771Z,17.77
2019-03-01T18:59:36.891Z,9.70
2019-03-01T19:02:07.006Z,10.53
2019-03-01T19:04:37.356Z,9.77
2019-03-01T19:07:07.350Z,9.47
2019-03-01T19:09:37.304Z,12.63
2019-03-01T19:12:09.521Z,12.13
2019-03-01T19:14:39.376Z,12.30
2019-03-01T19:17:10.561Z,9.53
2019-03-01T19:19:40.502Z,13.20
2019-03-01T19:22:10.685Z,11.00
2019-03-01T19:24:43.266Z,12.70
2019-03-01T19:27:15.565Z,14.53
2019-03-01T19:29:44.112Z,12.83
2019-03-01T19:32:14.004Z,11.73
2019-03-01T19:34:44.219Z,10.47
2019-03-01T19:37:14.600Z,12.53
2019-03-01T19:39:44.636Z,9.53
2019-03-01T19:42:14.630Z,9.63
2019-03-01T19:44:44.961Z,11.10
2019-03-01T19:47:15.417Z,11.80
2019-03-01T19:49:48.616Z,8.13
2019-03-01T19:52:17.485Z,7.33
2019-03-01T19:54:47.427Z,9.07
2019-03-01T19:57:17.607Z,13.90
2019-03-01T19:59:49.626Z,11.53
2019-03-01T20:02:19.158Z,10.73
2019-03-01T20:04:52.521Z,9.50
2019-03-01T20:07:21.560Z,9.60
2019-03-01T20:09:51.596Z,11.90
2019-03-01T20:12:21.624Z,10.47
2019-03-01T20:14:51.515Z,10.23
2019-03-01T20:17:21.723Z,10.97
2019-03-01T20:19:53.589Z,13.47
2019-03-01T20:22:23.414Z,8.80
2019-03-01T20:24:53.686Z,9.90
2019-03-01T20:27:23.897Z,11.97
2019-03-01T20:29:53.831Z,12.27
2019-03-01T20:32:23.862Z,8.03
2019-03-01T20:34:53.848Z,17.37
2019-03-01T20:37:24.753Z,11.30
2019-03-01T20:39:55.587Z,10.27
2019-03-01T20:42:30.740Z,8.47
2019-03-01T20:45:00.718Z,10.70
2019-03-01T20:47:30.926Z,10.83
2019-03-01T20:50:00.849Z,11.30
2019-03-01T20:52:31.272Z,10.33
2019-03-01T20:55:01.754Z,11.97
2019-03-01T20:57:31.926Z,10.60
2019-03-01T21:00:02.161Z,9.20
2019-03-01T21:02:32.505Z,8.07
2019-03-01T21:05:02.614Z,10.63
2019-03-01T21:07:32.933Z,12.00
2019-03-01T21:10:02.810Z,12.00
2019-03-01T21:12:33.540Z,9.27
2019-03-01T21:15:03.621Z,12.33
2019-03-01T21:17:33.842Z,10.63
2019-03-01T21:20:04.765Z,14.27
2019-03-01T21:22:36.619Z,12.47
2019-03-01T21:25:07.621Z,13.90
2019-03-01T21:27:37.956Z,11.60
2019-03-01T21:30:13.243Z,12.97
2019-03-01T21:32:43.181Z,14.40
2019-03-01T21:35:15.397Z,12.83
2019-03-01T21:37:45.776Z,11.37
2019-03-01T21:40:15.971Z,10.97
2019-03-01T21:42:47.639Z,9.83
2019-03-01T21:45:21.485Z,12.83
2019-03-01T21:47:52.777Z,15.60
2019-03-01T21:50:24.256Z,15.13
2019-03-01T21:52:55.714Z,11.60
2019-03-01T21:55:28.682Z,12.70
2019-03-01T21:57:58.135Z,11.37
2019-03-01T22:00:31.319Z,9.17
2019-03-01T22:03:01.741Z,13.47
2019-03-01T22:05:33.340Z,11.03
2019-03-01T22:08:04.920Z,18.00
2019-03-01T22:10:37.911Z,10.20
2019-03-01T22:13:07.343Z,9.57
2019-03-01T22:15:37.441Z,11.20
2019-03-01T22:18:07.530Z,10.60
2019-03-01T22:20:37.734Z,10.63
2019-03-01T22:23:10.217Z,10.50
2019-03-01T22:25:41.831Z,11.97
2019-03-01T22:28:13.534Z,9.90
2019-03-01T22:30:44.252Z,13.03
2019-03-01T22:33:17.329Z,12.87
2019-03-01T22:35:45.930Z,7.83
2019-03-01T22:38:15.830Z,12.47
2019-03-01T22:40:46.055Z,11.90
2019-03-01T22:43:16.000Z,12.13
2019-03-01T22:45:48.831Z,10.50
2019-03-01T22:48:18.008Z,10.57
2019-03-01T22:50:47.911Z,10.23
2019-03-01T22:53:18.122Z,11.93
2019-03-01T22:55:48.048Z,13.93
2019-03-01T22:58:18.236Z,12.13
2019-03-01T23:01:12.547Z,11.13
2019-03-01T23:03:44.596Z,11.23
2019-03-01T23:06:15.598Z,11.47
2019-03-01T23:08:45.515Z,11.33
2019-03-01T23:11:15.666Z,14.13
2019-03-01T23:13:45.624Z,10.97
2019-03-01T23:16:15.944Z,14.30
2019-03-01T23:18:56.179Z,13.47
2019-03-01T23:21:19.009Z,14.70
2019-03-01T23:23:49.696Z,19.37
2019-03-01T23:26:21.628Z,13.70
2019-03-01T23:28:51.408Z,13.60
2019-03-01T23:31:21.337Z,15.97
2019-03-01T23:33:51.855Z,14.87
2019-03-01T23:36:24.995Z,16.57
2019-03-01T23:38:53.721Z,24.67
2019-03-01T23:41:23.634Z,18.23
2019-03-01T23:43:53.764Z,17.40
2019-03-01T23:46:25.641Z,26.50
2019-03-01T23:48:55.549Z,17.33
2019-03-01T23:51:25.776Z,13.10
2019-03-01T23:53:55.982Z,13.60
2019-03-01T23:56:26.875Z,12.67
2019-03-01T23:58:58.258Z,19.57
